sensor_id;sensor_type;location;lat;lon;timestamp;temperature;humidity
17813;DHT22;9030;50.792;8.320;2023-03-19T00:01:25;7.60;99.90
17813;DHT22;9030;50.792;8.320;2023-03-19T00:03:52;7.60;99.90
17813;DHT22;9030;50.792;8.320;2023-03-19T00:06:21;7.60;99.90
17813;DHT22;9030;50.792;8.320;2023-03-19T00:08:49;7.60;99.90
17813;DHT22;9030;50.792;8.320;2023-03-19T00:11:16;7.60;99.90
17813;DHT22;9030;50.792;8.320;2023-03-19T00:13:44;7.60;99.90
17813;DHT22;9030;50.792;8.320;2023-03-19T00:16:11;7.60;99.90
17813;DHT22;9030;50.792;8.320;2023-03-19T00:18:38;7.60;99.90
17813;DHT22;9030;50.792;8.320;2023-03-19T00:21:05;7.60;99.90
17813;DHT22;9030;50.792;8.320;2023-03-19T00:23:31;7.60;99.90
17813;DHT22;9030;50.792;8.320;2023-03-19T00:25:58;7.60;99.90
17813;DHT22;9030;50.792;8.320;2023-03-19T00:28:25;7.50;99.90
17813;DHT22;9030;50.792;8.320;2023-03-19T00:30:53;7.50;99.90
17813;DHT22;9030;50.792;8.320;2023-03-19T00:33:20;7.60;99.90
17813;DHT22;9030;50.792;8.320;2023-03-19T00:35:47;7.50;99.90
17813;DHT22;9030;50.792;8.320;2023-03-19T00:38:14;7.50;99.90
17813;DHT22;9030;50.792;8.320;2023-03-19T00:40:40;7.50;99.90
17813;DHT22;9030;50.792;8.320;2023-03-19T00:43:07;7.50;99.90
17813;DHT22;9030;50.792;8.320;2023-03-19T00:45:34;7.50;99.90
17813;DHT22;9030;50.792;8.320;2023-03-19T00:48:02;7.50;99.90
17813;DHT22;9030;50.792;8.320;2023-03-19T00:50:29;7.50;99.90
17813;DHT22;9030;50.792;8.320;2023-03-19T00:52:56;7.50;99.90
17813;DHT22;9030;50.792;8.320;2023-03-19T00:55:23;7.50;99.90
17813;DHT22;9030;50.792;8.320;2023-03-19T00:57:50;7.50;99.90
17813;DHT22;9030;50.792;8.320;2023-03-19T01:00:18;7.50;99.90
17813;DHT22;9030;50.792;8.320;2023-03-19T01:02:45;7.50;99.90
17813;DHT22;9030;50.792;8.320;2023-03-19T01:05:13;7.50;99.90
17813;DHT22;9030;50.792;8.320;2023-03-19T01:07:41;7.50;99.90
17813;DHT22;9030;50.792;8.320;2023-03-19T01:10:09;7.50;99.90
17813;DHT22;9030;50.792;8.320;2023-03-19T01:12:35;7.50;99.90
17813;DHT22;9030;50.792;8.320;2023-03-19T01:15:04;7.50;99.90
17813;DHT22;9030;50.792;8.320;2023-03-19T01:17:31;7.50;99.90
17813;DHT22;9030;50.792;8.320;2023-03-19T01:19:58;7.50;99.90
17813;DHT22;9030;50.792;8.320;2023-03-19T01:22:26;7.50;99.90
17813;DHT22;9030;50.792;8.320;2023-03-19T01:24:53;7.50;99.90
17813;DHT22;9030;50.792;8.320;2023-03-19T01:27:20;7.50;99.90
17813;DHT22;9030;50.792;8.320;2023-03-19T01:29:47;7.50;99.90
17813;DHT22;9030;50.792;8.320;2023-03-19T01:32:13;7.50;99.90
17813;DHT22;9030;50.792;8.320;2023-03-19T01:34:41;7.40;99.90
17813;DHT22;9030;50.792;8.320;2023-03-19T01:37:08;7.40;99.90
17813;DHT22;9030;50.792;8.320;2023-03-19T01:39:36;7.40;99.90
17813;DHT22;9030;50.792;8.320;2023-03-19T01:42:03;7.40;99.90
17813;DHT22;9030;50.792;8.320;2023-03-19T01:44:32;7.40;99.90
17813;DHT22;9030;50.792;8.320;2023-03-19T01:47:02;7.40;99.90
17813;DHT22;9030;50.792;8.320;2023-03-19T01:49:30;7.30;99.90
17813;DHT22;9030;50.792;8.320;2023-03-19T01:51:58;7.40;99.90
17813;DHT22;9030;50.792;8.320;2023-03-19T01:54:28;7.30;99.90
17813;DHT22;9030;50.792;8.320;2023-03-19T01:56:59;7.30;99.90
17813;DHT22;9030;50.792;8.320;2023-03-19T01:59:30;7.20;99.90
17813;DHT22;9030;50.792;8.320;2023-03-19T02:02:01;7.20;99.90
17813;DHT22;9030;50.792;8.320;2023-03-19T02:04:30;7.30;99.90
17813;DHT22;9030;50.792;8.320;2023-03-19T02:06:58;7.30;99.90
17813;DHT22;9030;50.792;8.320;2023-03-19T02:09:26;7.30;99.90
17813;DHT22;9030;50.792;8.320;2023-03-19T02:11:56;7.30;99.90
17813;DHT22;9030;50.792;8.320;2023-03-19T02:14:24;7.30;99.90
17813;DHT22;9030;50.792;8.320;2023-03-19T02:16:51;7.40;99.90
17813;DHT22;9030;50.792;8.320;2023-03-19T02:19:22;7.40;99.90
17813;DHT22;9030;50.792;8.320;2023-03-19T02:21:51;7.30;99.90
17813;DHT22;9030;50.792;8.320;2023-03-19T02:24:24;7.40;99.90
17813;DHT22;9030;50.792;8.320;2023-03-19T02:26:54;7.40;99.90
17813;DHT22;9030;50.792;8.320;2023-03-19T02:29:22;7.40;99.90
17813;DHT22;9030;50.792;8.320;2023-03-19T02:31:52;7.40;99.90
17813;DHT22;9030;50.792;8.320;2023-03-19T02:34:36;7.40;99.90
17813;DHT22;9030;50.792;8.320;2023-03-19T02:37:08;7.30;99.90
17813;DHT22;9030;50.792;8.320;2023-03-19T02:39:43;7.40;99.90
17813;DHT22;9030;50.792;8.320;2023-03-19T02:42:13;7.40;99.90
17813;DHT22;9030;50.792;8.320;2023-03-19T02:44:41;7.40;99.90
17813;DHT22;9030;50.792;8.320;2023-03-19T02:47:08;7.40;99.90
17813;DHT22;9030;50.792;8.320;2023-03-19T02:49:35;7.40;99.90
17813;DHT22;9030;50.792;8.320;2023-03-19T02:52:02;7.30;99.90
17813;DHT22;9030;50.792;8.320;2023-03-19T02:54:29;7.40;99.90
17813;DHT22;9030;50.792;8.320;2023-03-19T02:56:58;7.30;99.90
17813;DHT22;9030;50.792;8.320;2023-03-19T02:59:26;7.30;99.90
17813;DHT22;9030;50.792;8.320;2023-03-19T03:01:53;7.30;99.90
17813;DHT22;9030;50.792;8.320;2023-03-19T03:04:21;7.20;99.90
17813;DHT22;9030;50.792;8.320;2023-03-19T03:06:47;7.30;99.90
17813;DHT22;9030;50.792;8.320;2023-03-19T03:09:14;7.30;99.90
17813;DHT22;9030;50.792;8.320;2023-03-19T03:11:41;7.30;99.90
17813;DHT22;9030;50.792;8.320;2023-03-19T03:14:08;7.30;99.90
17813;DHT22;9030;50.792;8.320;2023-03-19T03:16:36;7.30;99.90
17813;DHT22;9030;50.792;8.320;2023-03-19T03:19:04;7.30;99.90
17813;DHT22;9030;50.792;8.320;2023-03-19T03:21:31;7.30;99.90
17813;DHT22;9030;50.792;8.320;2023-03-19T03:23:58;7.40;99.90
17813;DHT22;9030;50.792;8.320;2023-03-19T03:26:25;7.40;99.90
17813;DHT22;9030;50.792;8.320;2023-03-19T03:28:52;7.40;99.90
17813;DHT22;9030;50.792;8.320;2023-03-19T03:31:19;7.40;99.90
17813;DHT22;9030;50.792;8.320;2023-03-19T03:33:49;7.40;99.90
17813;DHT22;9030;50.792;8.320;2023-03-19T03:36:16;7.40;99.90
17813;DHT22;9030;50.792;8.320;2023-03-19T03:38:43;7.40;99.90
17813;DHT22;9030;50.792;8.320;2023-03-19T03:41:10;7.30;99.90
17813;DHT22;9030;50.792;8.320;2023-03-19T03:43:37;7.30;99.90
17813;DHT22;9030;50.792;8.320;2023-03-19T03:46:04;7.30;99.90
17813;DHT22;9030;50.792;8.320;2023-03-19T03:48:32;7.30;99.90
17813;DHT22;9030;50.792;8.320;2023-03-19T03:51:00;7.40;99.90
17813;DHT22;9030;50.792;8.320;2023-03-19T03:53:27;7.30;99.90
17813;DHT22;9030;50.792;8.320;2023-03-19T03:55:54;7.40;99.90
17813;DHT22;9030;50.792;8.320;2023-03-19T03:58:21;7.40;99.90
17813;DHT22;9030;50.792;8.320;2023-03-19T04:00:48;7.30;99.90
17813;DHT22;9030;50.792;8.320;2023-03-19T04:03:15;7.40;99.90
17813;DHT22;9030;50.792;8.320;2023-03-19T04:05:42;7.40;99.90
17813;DHT22;9030;50.792;8.320;2023-03-19T04:08:10;7.40;99.90
17813;DHT22;9030;50.792;8.320;2023-03-19T04:10:38;7.40;99.90
17813;DHT22;9030;50.792;8.320;2023-03-19T04:13:07;7.40;99.90
17813;DHT22;9030;50.792;8.320;2023-03-19T04:15:33;7.30;99.90
17813;DHT22;9030;50.792;8.320;2023-03-19T04:18:00;7.30;99.90
17813;DHT22;9030;50.792;8.320;2023-03-19T04:20:27;7.30;99.90
17813;DHT22;9030;50.792;8.320;2023-03-19T04:22:54;7.20;99.90
17813;DHT22;9030;50.792;8.320;2023-03-19T04:25:22;7.10;99.90
17813;DHT22;9030;50.792;8.320;2023-03-19T04:27:49;7.10;99.90
17813;DHT22;9030;50.792;8.320;2023-03-19T04:30:17;7.00;99.90
17813;DHT22;9030;50.792;8.320;2023-03-19T04:32:44;6.90;99.90
17813;DHT22;9030;50.792;8.320;2023-03-19T04:35:11;6.80;99.90
17813;DHT22;9030;50.792;8.320;2023-03-19T04:37:38;6.80;99.90
17813;DHT22;9030;50.792;8.320;2023-03-19T04:40:06;6.70;99.90
17813;DHT22;9030;50.792;8.320;2023-03-19T04:42:35;6.60;99.90
17813;DHT22;9030;50.792;8.320;2023-03-19T04:45:01;6.60;99.90
17813;DHT22;9030;50.792;8.320;2023-03-19T04:47:29;6.70;99.90
17813;DHT22;9030;50.792;8.320;2023-03-19T04:49:56;6.60;99.90
17813;DHT22;9030;50.792;8.320;2023-03-19T04:52:23;6.60;99.90
17813;DHT22;9030;50.792;8.320;2023-03-19T04:54:49;6.60;99.90
17813;DHT22;9030;50.792;8.320;2023-03-19T04:57:16;6.60;99.90
17813;DHT22;9030;50.792;8.320;2023-03-19T04:59:44;6.60;99.90
17813;DHT22;9030;50.792;8.320;2023-03-19T05:02:11;6.60;99.90
17813;DHT22;9030;50.792;8.320;2023-03-19T05:04:38;6.60;99.90
17813;DHT22;9030;50.792;8.320;2023-03-19T05:07:05;6.60;99.90
17813;DHT22;9030;50.792;8.320;2023-03-19T05:09:32;6.60;99.90
17813;DHT22;9030;50.792;8.320;2023-03-19T05:11:59;6.60;99.90
17813;DHT22;9030;50.792;8.320;2023-03-19T05:14:25;6.70;99.90
17813;DHT22;9030;50.792;8.320;2023-03-19T05:16:53;6.70;99.90
17813;DHT22;9030;50.792;8.320;2023-03-19T05:19:21;6.70;99.90
17813;DHT22;9030;50.792;8.320;2023-03-19T05:21:49;6.70;99.90
17813;DHT22;9030;50.792;8.320;2023-03-19T05:24:16;6.70;99.90
17813;DHT22;9030;50.792;8.320;2023-03-19T05:26:43;6.70;99.90
17813;DHT22;9030;50.792;8.320;2023-03-19T05:29:10;6.70;99.90
17813;DHT22;9030;50.792;8.320;2023-03-19T05:31:39;6.70;99.90
17813;DHT22;9030;50.792;8.320;2023-03-19T05:34:07;6.70;99.90
17813;DHT22;9030;50.792;8.320;2023-03-19T05:36:34;6.70;99.90
17813;DHT22;9030;50.792;8.320;2023-03-19T05:39:00;6.70;99.90
17813;DHT22;9030;50.792;8.320;2023-03-19T05:41:28;6.70;99.90
17813;DHT22;9030;50.792;8.320;2023-03-19T05:43:55;6.70;99.90
17813;DHT22;9030;50.792;8.320;2023-03-19T05:46:21;6.70;99.90
17813;DHT22;9030;50.792;8.320;2023-03-19T05:48:49;6.70;99.90
17813;DHT22;9030;50.792;8.320;2023-03-19T05:51:17;6.70;99.90
17813;DHT22;9030;50.792;8.320;2023-03-19T05:53:44;6.70;99.90
17813;DHT22;9030;50.792;8.320;2023-03-19T05:56:10;6.70;99.90
17813;DHT22;9030;50.792;8.320;2023-03-19T05:58:37;6.70;99.90
17813;DHT22;9030;50.792;8.320;2023-03-19T06:01:04;6.70;99.90
17813;DHT22;9030;50.792;8.320;2023-03-19T06:03:31;6.80;99.90
17813;DHT22;9030;50.792;8.320;2023-03-19T06:05:58;6.80;99.90
17813;DHT22;9030;50.792;8.320;2023-03-19T06:08:27;6.90;99.90
17813;DHT22;9030;50.792;8.320;2023-03-19T06:10:53;6.90;99.90
17813;DHT22;9030;50.792;8.320;2023-03-19T06:13:20;6.90;99.90
17813;DHT22;9030;50.792;8.320;2023-03-19T06:15:47;6.90;99.90
17813;DHT22;9030;50.792;8.320;2023-03-19T06:18:15;6.90;99.90
17813;DHT22;9030;50.792;8.320;2023-03-19T06:20:42;6.90;99.90
17813;DHT22;9030;50.792;8.320;2023-03-19T06:23:09;6.90;99.90
17813;DHT22;9030;50.792;8.320;2023-03-19T06:25:37;6.90;99.90
17813;DHT22;9030;50.792;8.320;2023-03-19T06:28:04;6.90;99.90
17813;DHT22;9030;50.792;8.320;2023-03-19T06:30:31;7.00;99.90
17813;DHT22;9030;50.792;8.320;2023-03-19T06:32:59;7.00;99.90
17813;DHT22;9030;50.792;8.320;2023-03-19T06:35:26;7.10;99.90
17813;DHT22;9030;50.792;8.320;2023-03-19T06:37:53;7.20;99.90
17813;DHT22;9030;50.792;8.320;2023-03-19T06:40:21;7.30;99.90
17813;DHT22;9030;50.792;8.320;2023-03-19T06:42:49;7.40;99.90
17813;DHT22;9030;50.792;8.320;2023-03-19T06:45:17;7.40;99.90
17813;DHT22;9030;50.792;8.320;2023-03-19T06:47:45;7.40;99.90
17813;DHT22;9030;50.792;8.320;2023-03-19T06:50:13;7.40;99.90
17813;DHT22;9030;50.792;8.320;2023-03-19T06:52:41;7.50;99.90
17813;DHT22;9030;50.792;8.320;2023-03-19T06:55:08;7.50;99.90
17813;DHT22;9030;50.792;8.320;2023-03-19T06:57:36;7.50;99.90
17813;DHT22;9030;50.792;8.320;2023-03-19T07:00:05;7.60;99.90
17813;DHT22;9030;50.792;8.320;2023-03-19T07:02:35;7.60;99.90
17813;DHT22;9030;50.792;8.320;2023-03-19T07:05:01;7.60;99.90
17813;DHT22;9030;50.792;8.320;2023-03-19T07:07:28;7.70;99.90
17813;DHT22;9030;50.792;8.320;2023-03-19T07:09:56;7.70;99.90
17813;DHT22;9030;50.792;8.320;2023-03-19T07:12:22;7.80;99.90
17813;DHT22;9030;50.792;8.320;2023-03-19T07:14:52;7.80;99.90
17813;DHT22;9030;50.792;8.320;2023-03-19T07:17:20;7.90;99.90
17813;DHT22;9030;50.792;8.320;2023-03-19T07:19:47;7.90;99.90
17813;DHT22;9030;50.792;8.320;2023-03-19T07:22:14;7.90;99.90
17813;DHT22;9030;50.792;8.320;2023-03-19T07:24:41;7.80;99.90
17813;DHT22;9030;50.792;8.320;2023-03-19T07:27:08;7.90;99.90
17813;DHT22;9030;50.792;8.320;2023-03-19T07:29:35;8.00;99.90
17813;DHT22;9030;50.792;8.320;2023-03-19T07:32:02;8.00;99.90
17813;DHT22;9030;50.792;8.320;2023-03-19T07:34:30;8.20;99.90
17813;DHT22;9030;50.792;8.320;2023-03-19T07:36:57;8.20;99.90
17813;DHT22;9030;50.792;8.320;2023-03-19T07:39:24;8.20;99.90
17813;DHT22;9030;50.792;8.320;2023-03-19T07:41:51;8.40;99.90
17813;DHT22;9030;50.792;8.320;2023-03-19T07:44:18;8.50;99.90
17813;DHT22;9030;50.792;8.320;2023-03-19T07:46:45;8.60;99.90
17813;DHT22;9030;50.792;8.320;2023-03-19T07:49:12;8.60;99.90
17813;DHT22;9030;50.792;8.320;2023-03-19T07:51:40;8.60;99.90
17813;DHT22;9030;50.792;8.320;2023-03-19T07:54:07;8.60;99.90
17813;DHT22;9030;50.792;8.320;2023-03-19T07:56:34;8.60;99.90
17813;DHT22;9030;50.792;8.320;2023-03-19T07:59:00;8.70;99.90
17813;DHT22;9030;50.792;8.320;2023-03-19T08:01:27;8.70;99.90
17813;DHT22;9030;50.792;8.320;2023-03-19T08:03:54;8.80;99.90
17813;DHT22;9030;50.792;8.320;2023-03-19T08:06:20;8.90;99.90
17813;DHT22;9030;50.792;8.320;2023-03-19T08:08:49;9.00;99.90
17813;DHT22;9030;50.792;8.320;2023-03-19T08:11:16;9.10;99.90
17813;DHT22;9030;50.792;8.320;2023-03-19T08:13:43;9.10;99.90
17813;DHT22;9030;50.792;8.320;2023-03-19T08:16:09;9.00;99.90
17813;DHT22;9030;50.792;8.320;2023-03-19T08:18:36;9.10;99.90
17813;DHT22;9030;50.792;8.320;2023-03-19T08:21:04;9.20;99.90
17813;DHT22;9030;50.792;8.320;2023-03-19T08:23:33;9.30;99.90
17813;DHT22;9030;50.792;8.320;2023-03-19T08:26:01;9.30;99.90
17813;DHT22;9030;50.792;8.320;2023-03-19T08:28:30;9.40;99.90
17813;DHT22;9030;50.792;8.320;2023-03-19T08:30:57;9.60;99.90
17813;DHT22;9030;50.792;8.320;2023-03-19T08:33:24;9.80;99.90
17813;DHT22;9030;50.792;8.320;2023-03-19T08:35:51;9.90;99.90
17813;DHT22;9030;50.792;8.320;2023-03-19T08:38:17;10.00;99.90
17813;DHT22;9030;50.792;8.320;2023-03-19T08:40:44;10.00;99.90
17813;DHT22;9030;50.792;8.320;2023-03-19T08:43:13;10.10;99.90
17813;DHT22;9030;50.792;8.320;2023-03-19T08:45:40;10.00;99.90
17813;DHT22;9030;50.792;8.320;2023-03-19T08:48:06;10.20;99.90
17813;DHT22;9030;50.792;8.320;2023-03-19T08:50:33;10.20;99.90
17813;DHT22;9030;50.792;8.320;2023-03-19T08:53:00;10.40;99.90
17813;DHT22;9030;50.792;8.320;2023-03-19T08:55:28;10.50;99.90
17813;DHT22;9030;50.792;8.320;2023-03-19T08:57:55;10.80;99.90
17813;DHT22;9030;50.792;8.320;2023-03-19T09:00:24;10.90;99.90
17813;DHT22;9030;50.792;8.320;2023-03-19T09:02:52;11.10;99.90
17813;DHT22;9030;50.792;8.320;2023-03-19T09:05:18;11.20;99.90
17813;DHT22;9030;50.792;8.320;2023-03-19T09:07:46;11.30;99.90
17813;DHT22;9030;50.792;8.320;2023-03-19T09:10:13;11.40;99.90
17813;DHT22;9030;50.792;8.320;2023-03-19T09:12:40;11.40;99.90
17813;DHT22;9030;50.792;8.320;2023-03-19T09:15:07;11.40;99.90
17813;DHT22;9030;50.792;8.320;2023-03-19T09:17:35;11.30;99.90
17813;DHT22;9030;50.792;8.320;2023-03-19T09:20:03;11.30;99.90
17813;DHT22;9030;50.792;8.320;2023-03-19T09:22:31;11.20;99.90
17813;DHT22;9030;50.792;8.320;2023-03-19T09:24:58;11.10;99.90
17813;DHT22;9030;50.792;8.320;2023-03-19T09:27:25;11.10;99.90
17813;DHT22;9030;50.792;8.320;2023-03-19T09:29:51;11.00;99.90
17813;DHT22;9030;50.792;8.320;2023-03-19T09:32:18;11.00;99.90
17813;DHT22;9030;50.792;8.320;2023-03-19T09:34:47;11.00;99.90
17813;DHT22;9030;50.792;8.320;2023-03-19T09:37:15;11.00;99.90
17813;DHT22;9030;50.792;8.320;2023-03-19T09:39:42;10.90;99.90
17813;DHT22;9030;50.792;8.320;2023-03-19T09:42:23;11.00;99.90
17813;DHT22;9030;50.792;8.320;2023-03-19T09:44:53;11.00;99.90
17813;DHT22;9030;50.792;8.320;2023-03-19T09:47:28;11.10;99.90
17813;DHT22;9030;50.792;8.320;2023-03-19T09:49:59;11.20;99.90
17813;DHT22;9030;50.792;8.320;2023-03-19T09:52:40;11.20;99.90
17813;DHT22;9030;50.792;8.320;2023-03-19T09:55:14;11.20;99.90
17813;DHT22;9030;50.792;8.320;2023-03-19T09:57:45;11.10;99.90
17813;DHT22;9030;50.792;8.320;2023-03-19T10:00:21;11.10;99.90
17813;DHT22;9030;50.792;8.320;2023-03-19T10:02:52;11.10;99.90
17813;DHT22;9030;50.792;8.320;2023-03-19T10:05:29;11.20;99.90
17813;DHT22;9030;50.792;8.320;2023-03-19T10:08:23;11.30;99.90
17813;DHT22;9030;50.792;8.320;2023-03-19T10:11:03;11.50;99.90
17813;DHT22;9030;50.792;8.320;2023-03-19T10:13:46;11.60;99.90
17813;DHT22;9030;50.792;8.320;2023-03-19T10:16:20;11.70;99.90
17813;DHT22;9030;50.792;8.320;2023-03-19T10:18:49;11.80;99.90
17813;DHT22;9030;50.792;8.320;2023-03-19T10:21:22;11.80;99.90
17813;DHT22;9030;50.792;8.320;2023-03-19T10:23:53;11.80;99.90
17813;DHT22;9030;50.792;8.320;2023-03-19T10:26:28;11.70;99.90
17813;DHT22;9030;50.792;8.320;2023-03-19T10:29:01;11.80;99.90
17813;DHT22;9030;50.792;8.320;2023-03-19T10:31:39;11.80;99.90
17813;DHT22;9030;50.792;8.320;2023-03-19T10:34:17;11.80;99.90
17813;DHT22;9030;50.792;8.320;2023-03-19T10:36:48;11.80;99.90
17813;DHT22;9030;50.792;8.320;2023-03-19T10:39:16;11.80;99.90
17813;DHT22;9030;50.792;8.320;2023-03-19T10:41:48;11.90;99.90
17813;DHT22;9030;50.792;8.320;2023-03-19T10:44:27;11.90;99.90
17813;DHT22;9030;50.792;8.320;2023-03-19T10:46:59;12.00;99.90
17813;DHT22;9030;50.792;8.320;2023-03-19T10:49:34;12.00;99.90
17813;DHT22;9030;50.792;8.320;2023-03-19T10:52:03;11.90;99.90
17813;DHT22;9030;50.792;8.320;2023-03-19T10:54:30;11.80;99.90
17813;DHT22;9030;50.792;8.320;2023-03-19T10:56:59;11.60;99.90
17813;DHT22;9030;50.792;8.320;2023-03-19T10:59:31;11.50;99.90
17813;DHT22;9030;50.792;8.320;2023-03-19T11:02:01;11.40;99.90
17813;DHT22;9030;50.792;8.320;2023-03-19T11:04:29;11.20;99.90
17813;DHT22;9030;50.792;8.320;2023-03-19T11:07:07;11.20;99.90
17813;DHT22;9030;50.792;8.320;2023-03-19T11:09:37;11.20;99.90
17813;DHT22;9030;50.792;8.320;2023-03-19T11:12:16;11.20;99.90
17813;DHT22;9030;50.792;8.320;2023-03-19T11:14:45;11.10;99.90
17813;DHT22;9030;50.792;8.320;2023-03-19T11:17:20;11.00;99.90
17813;DHT22;9030;50.792;8.320;2023-03-19T11:19:51;11.00;99.90
17813;DHT22;9030;50.792;8.320;2023-03-19T11:22:22;11.00;99.90
17813;DHT22;9030;50.792;8.320;2023-03-19T11:24:51;11.10;99.90
17813;DHT22;9030;50.792;8.320;2023-03-19T11:27:25;11.20;99.90
17813;DHT22;9030;50.792;8.320;2023-03-19T11:29:52;11.30;99.90
17813;DHT22;9030;50.792;8.320;2023-03-19T11:32:35;11.40;99.90
17813;DHT22;9030;50.792;8.320;2023-03-19T11:35:08;11.60;99.90
17813;DHT22;9030;50.792;8.320;2023-03-19T11:37:49;11.90;99.90
17813;DHT22;9030;50.792;8.320;2023-03-19T11:40:24;12.00;99.90
17813;DHT22;9030;50.792;8.320;2023-03-19T11:45:58;12.30;99.90
17813;DHT22;9030;50.792;8.320;2023-03-19T11:48:36;12.50;99.90
17813;DHT22;9030;50.792;8.320;2023-03-19T11:51:09;12.80;99.90
17813;DHT22;9030;50.792;8.320;2023-03-19T11:53:51;12.90;99.90
17813;DHT22;9030;50.792;8.320;2023-03-19T11:56:24;12.90;99.90
17813;DHT22;9030;50.792;8.320;2023-03-19T11:59:15;12.90;99.90
17813;DHT22;9030;50.792;8.320;2023-03-19T12:02:00;13.20;99.90
17813;DHT22;9030;50.792;8.320;2023-03-19T12:04:46;13.40;99.90
17813;DHT22;9030;50.792;8.320;2023-03-19T12:07:21;13.40;99.90
17813;DHT22;9030;50.792;8.320;2023-03-19T12:09:58;13.40;99.90
17813;DHT22;9030;50.792;8.320;2023-03-19T12:12:33;13.30;99.90
17813;DHT22;9030;50.792;8.320;2023-03-19T12:15:11;13.30;99.90
17813;DHT22;9030;50.792;8.320;2023-03-19T12:17:49;13.10;99.90
17813;DHT22;9030;50.792;8.320;2023-03-19T12:20:31;12.90;99.90
17813;DHT22;9030;50.792;8.320;2023-03-19T12:23:05;13.00;99.90
17813;DHT22;9030;50.792;8.320;2023-03-19T12:25:49;13.10;99.90
17813;DHT22;9030;50.792;8.320;2023-03-19T12:28:23;13.10;99.90
17813;DHT22;9030;50.792;8.320;2023-03-19T12:34:13;13.20;99.90
17813;DHT22;9030;50.792;8.320;2023-03-19T12:36:49;13.30;99.90
17813;DHT22;9030;50.792;8.320;2023-03-19T12:39:20;13.40;99.90
17813;DHT22;9030;50.792;8.320;2023-03-19T12:41:50;13.40;99.90
17813;DHT22;9030;50.792;8.320;2023-03-19T12:44:23;13.70;99.90
17813;DHT22;9030;50.792;8.320;2023-03-19T12:46:55;13.90;99.90
17813;DHT22;9030;50.792;8.320;2023-03-19T12:49:27;14.00;99.90
17813;DHT22;9030;50.792;8.320;2023-03-19T12:51:58;14.00;99.90
17813;DHT22;9030;50.792;8.320;2023-03-19T12:54:29;14.20;99.90
17813;DHT22;9030;50.792;8.320;2023-03-19T12:57:03;14.10;99.90
17813;DHT22;9030;50.792;8.320;2023-03-19T12:59:36;14.10;99.90
17813;DHT22;9030;50.792;8.320;2023-03-19T13:02:16;14.10;99.90
17813;DHT22;9030;50.792;8.320;2023-03-19T13:04:51;13.60;99.90
17813;DHT22;9030;50.792;8.320;2023-03-19T13:07:25;13.30;99.90
17813;DHT22;9030;50.792;8.320;2023-03-19T13:09:59;13.10;99.90
17813;DHT22;9030;50.792;8.320;2023-03-19T13:12:30;13.00;99.90
17813;DHT22;9030;50.792;8.320;2023-03-19T13:15:01;12.80;99.90
17813;DHT22;9030;50.792;8.320;2023-03-19T13:17:37;12.60;99.90
17813;DHT22;9030;50.792;8.320;2023-03-19T13:20:15;12.50;99.90
17813;DHT22;9030;50.792;8.320;2023-03-19T13:22:48;12.30;99.90
17813;DHT22;9030;50.792;8.320;2023-03-19T13:25:19;12.20;99.90
17813;DHT22;9030;50.792;8.320;2023-03-19T13:27:53;12.10;99.90
17813;DHT22;9030;50.792;8.320;2023-03-19T13:30:21;11.90;99.90
17813;DHT22;9030;50.792;8.320;2023-03-19T13:32:50;11.80;99.90
17813;DHT22;9030;50.792;8.320;2023-03-19T13:35:30;11.70;99.90
17813;DHT22;9030;50.792;8.320;2023-03-19T13:38:00;11.50;99.90
17813;DHT22;9030;50.792;8.320;2023-03-19T13:40:43;11.40;99.90
17813;DHT22;9030;50.792;8.320;2023-03-19T13:46:38;11.20;99.90
17813;DHT22;9030;50.792;8.320;2023-03-19T13:49:22;11.00;99.90
17813;DHT22;9030;50.792;8.320;2023-03-19T13:51:53;10.80;99.90
17813;DHT22;9030;50.792;8.320;2023-03-19T13:54:32;10.70;99.90
17813;DHT22;9030;50.792;8.320;2023-03-19T13:57:18;10.50;99.90
17813;DHT22;9030;50.792;8.320;2023-03-19T13:59:47;10.40;99.90
17813;DHT22;9030;50.792;8.320;2023-03-19T14:02:50;10.40;99.90
17813;DHT22;9030;50.792;8.320;2023-03-19T14:05:19;10.40;99.90
17813;DHT22;9030;50.792;8.320;2023-03-19T14:07:50;10.40;99.90
17813;DHT22;9030;50.792;8.320;2023-03-19T14:10:23;10.40;99.90
17813;DHT22;9030;50.792;8.320;2023-03-19T14:12:52;10.50;99.90
17813;DHT22;9030;50.792;8.320;2023-03-19T14:15:28;10.70;99.90
17813;DHT22;9030;50.792;8.320;2023-03-19T14:17:58;10.90;99.90
17813;DHT22;9030;50.792;8.320;2023-03-19T14:20:27;11.10;99.90
17813;DHT22;9030;50.792;8.320;2023-03-19T14:23:09;11.50;99.90
17813;DHT22;9030;50.792;8.320;2023-03-19T14:26:00;11.90;99.90
17813;DHT22;9030;50.792;8.320;2023-03-19T14:28:34;12.00;99.90
17813;DHT22;9030;50.792;8.320;2023-03-19T14:31:04;12.10;99.90
17813;DHT22;9030;50.792;8.320;2023-03-19T14:33:38;12.10;99.90
17813;DHT22;9030;50.792;8.320;2023-03-19T14:36:12;11.90;99.90
17813;DHT22;9030;50.792;8.320;2023-03-19T14:38:45;11.90;99.90
17813;DHT22;9030;50.792;8.320;2023-03-19T14:41:16;11.80;99.90
17813;DHT22;9030;50.792;8.320;2023-03-19T14:44:12;11.60;99.90
17813;DHT22;9030;50.792;8.320;2023-03-19T14:46:52;11.50;99.90
17813;DHT22;9030;50.792;8.320;2023-03-19T14:52:31;11.40;99.90
17813;DHT22;9030;50.792;8.320;2023-03-19T14:55:06;11.50;99.90
17813;DHT22;9030;50.792;8.320;2023-03-19T14:57:34;11.60;99.90
17813;DHT22;9030;50.792;8.320;2023-03-19T15:00:02;11.60;99.90
17813;DHT22;9030;50.792;8.320;2023-03-19T15:02:36;11.50;99.90
17813;DHT22;9030;50.792;8.320;2023-03-19T15:05:07;11.50;99.90
17813;DHT22;9030;50.792;8.320;2023-03-19T15:07:36;11.50;99.90
17813;DHT22;9030;50.792;8.320;2023-03-19T15:10:05;11.50;99.90
17813;DHT22;9030;50.792;8.320;2023-03-19T15:12:50;11.60;99.90
17813;DHT22;9030;50.792;8.320;2023-03-19T15:15:26;11.60;99.90
17813;DHT22;9030;50.792;8.320;2023-03-19T15:18:00;11.60;99.90
17813;DHT22;9030;50.792;8.320;2023-03-19T15:20:31;11.60;99.90
17813;DHT22;9030;50.792;8.320;2023-03-19T15:23:00;11.40;99.90
17813;DHT22;9030;50.792;8.320;2023-03-19T15:25:28;11.60;99.90
17813;DHT22;9030;50.792;8.320;2023-03-19T15:28:07;11.70;99.90
17813;DHT22;9030;50.792;8.320;2023-03-19T15:30:34;11.70;99.90
17813;DHT22;9030;50.792;8.320;2023-03-19T15:33:03;11.70;99.90
17813;DHT22;9030;50.792;8.320;2023-03-19T15:35:31;11.70;99.90
17813;DHT22;9030;50.792;8.320;2023-03-19T15:38:01;11.70;99.90
17813;DHT22;9030;50.792;8.320;2023-03-19T15:40:30;11.70;99.90
17813;DHT22;9030;50.792;8.320;2023-03-19T15:43:00;11.70;99.90
17813;DHT22;9030;50.792;8.320;2023-03-19T15:45:28;11.60;99.90
17813;DHT22;9030;50.792;8.320;2023-03-19T15:48:02;11.70;99.90
17813;DHT22;9030;50.792;8.320;2023-03-19T15:50:33;11.70;99.90
17813;DHT22;9030;50.792;8.320;2023-03-19T15:53:03;11.60;99.90
17813;DHT22;9030;50.792;8.320;2023-03-19T15:55:33;11.50;99.90
17813;DHT22;9030;50.792;8.320;2023-03-19T15:58:05;11.40;99.90
17813;DHT22;9030;50.792;8.320;2023-03-19T16:00:37;11.30;99.90
17813;DHT22;9030;50.792;8.320;2023-03-19T16:03:11;11.30;99.90
17813;DHT22;9030;50.792;8.320;2023-03-19T16:05:41;11.30;99.90
17813;DHT22;9030;50.792;8.320;2023-03-19T16:08:14;11.20;99.90
17813;DHT22;9030;50.792;8.320;2023-03-19T16:10:43;11.10;99.90
17813;DHT22;9030;50.792;8.320;2023-03-19T16:13:22;11.10;99.90
17813;DHT22;9030;50.792;8.320;2023-03-19T16:15:58;11.20;99.90
17813;DHT22;9030;50.792;8.320;2023-03-19T16:18:29;11.20;99.90
17813;DHT22;9030;50.792;8.320;2023-03-19T16:21:06;11.20;99.90
17813;DHT22;9030;50.792;8.320;2023-03-19T16:23:35;11.30;99.90
17813;DHT22;9030;50.792;8.320;2023-03-19T16:26:05;11.30;99.90